Huvudsida
METAR-TAF:

METAR-TAF

Flygplatser :

Göteborg-Landvetter Airport

Göteborg-Landvetter, Sverige

latitud: 57-40N, longitud: 012-18E, höjd: 169 m

Aktuellt väderrapport

Denna rapport gjordes för 35 minuter sedan, klockan 02:20 UTC
Vind 7 kt från nord/nordost
Temperatur 6°C
Fuktighet 75%
Tryck 1021 hPa
Sikt 10 km eller mer
Inga moln under 1 500 m eller inga cumulonimbus

METAR: ESGG 190220Z 02007KT CAVOK 06/02 Q1021

Tid: 04:55 (02:55 UTC)

Väderprognos

Denna rapport gjordes för 3 timmar och 25 minuter sedan, klockan 23:30 UTC
Prognos gäller från 19 kl. 00 UTC till 19 kl. 24 UTC
Vind 5 kt från nordväst
Sikt 10 km eller mer
Inga moln under 1 500 m eller inga cumulonimbus

TAF: ESGG 182330Z 1900/1924 32005KT CAVOK

Aktuella väderrapporter och prognoser från 4000 flygplatser (METAR- och TAF-rapporter).

De tillgängliga stationerna syns som gula och röda prickar på kartan.

För musen över prickarna för att se namnen på stationerna.

Klicka sedan för att få väderrapporter och prognoser.

För att ändra kartan: Klicka på de gröna knapparna med ett svart kors på för att zooma in; den gröna knappen med ett streck på för att zooma ut; eller på de gröna pilarna för angränsande kartor.


METAR-TAF: